Kerteminde, Denmark
Current Conditions -  °F | °C
As of 4:50 PM on Thursday 29 Jan 2015 (Local Time) from EKOD Reporting Station
Broken Clouds Broken Clouds  
Wind Chill: -3°   Ceiling: 1500
Heat Index:   Visibility: 6mi
Dew Point:   Wind: 15mph
Humidity: 93%   Direction: 190°S
Pressure: 28.76"   Gusts: NA
Location:  55.45°N, 10.66°E
Report Text: EKOD 291550Z 19013KT 9999 FEW008 BKN015 02/01 Q0974
Loading
Personal Weather Stations






























Interactive Weather Map New forecast layout! Learn more

10-Day Weather Forecast

Advertisements
Track Severe Weather on mobile